sensor_id;sensor_type;location;lat;lon;timestamp;pressure;altitude;pressure_sealevel;temperature;humidity
24892;BME280;12954;50.688;10.908;2022-09-04T00:02:04;95647.50;;;13.20;57.41
24892;BME280;12954;50.688;10.908;2022-09-04T00:04:41;95654.88;;;13.14;57.45
24892;BME280;12954;50.688;10.908;2022-09-04T00:07:18;95654.94;;;13.09;57.78
24892;BME280;12954;50.688;10.908;2022-09-04T00:09:56;95565.34;;;12.55;57.75
24892;BME280;12954;50.688;10.908;2022-09-04T00:12:40;95660.22;;;13.01;57.75
24892;BME280;12954;50.688;10.908;2022-09-04T00:15:13;95659.41;;;13.00;57.97
24892;BME280;12954;50.688;10.908;2022-09-04T00:17:50;95662.13;;;13.00;58.00
24892;BME280;12954;50.688;10.908;2022-09-04T00:20:33;95481.91;;;11.82;58.17
24892;BME280;12954;50.688;10.908;2022-09-04T00:23:11;95656.88;;;12.90;58.22
24892;BME280;12954;50.688;10.908;2022-09-04T00:25:48;95666.56;;;12.91;58.18
24892;BME280;12954;50.688;10.908;2022-09-04T00:28:29;95668.78;;;12.89;58.22
24892;BME280;12954;50.688;10.908;2022-09-04T00:31:05;95665.00;;;12.90;58.25
24892;BME280;12954;50.688;10.908;2022-09-04T00:33:47;95630.66;;;12.67;58.27
24892;BME280;12954;50.688;10.908;2022-09-04T00:36:24;95475.00;;;11.71;58.23
24892;BME280;12954;50.688;10.908;2022-09-04T00:38:57;95653.34;;;12.90;58.48
24892;BME280;12954;50.688;10.908;2022-09-04T00:41:29;95647.13;;;12.89;58.60
24892;BME280;12954;50.688;10.908;2022-09-04T00:47:18;95655.44;;;12.74;59.05
24892;BME280;12954;50.688;10.908;2022-09-04T00:50:03;95660.50;;;12.80;58.62
24892;BME280;12954;50.688;10.908;2022-09-04T00:55:57;95661.69;;;12.74;58.60
24892;BME280;12954;50.688;10.908;2022-09-04T00:58:40;95672.28;;;12.71;58.85
24892;BME280;12954;50.688;10.908;2022-09-04T01:01:20;95669.06;;;12.69;59.01
24892;BME280;12954;50.688;10.908;2022-09-04T01:04:17;95674.47;;;12.69;59.31
24892;BME280;12954;50.688;10.908;2022-09-04T01:07:02;95676.69;;;12.67;59.13
24892;BME280;12954;50.688;10.908;2022-09-04T01:09:50;95640.63;;;12.48;59.33
24892;BME280;12954;50.688;10.908;2022-09-04T01:12:34;95596.19;;;12.11;59.31
24892;BME280;12954;50.688;10.908;2022-09-04T01:15:12;95683.69;;;12.68;59.49
24892;BME280;12954;50.688;10.908;2022-09-04T01:17:50;95656.78;;;12.53;59.53
24892;BME280;12954;50.688;10.908;2022-09-04T01:20:42;95679.72;;;12.60;59.77
24892;BME280;12954;50.688;10.908;2022-09-04T01:23:29;95679.81;;;12.55;59.79
24892;BME280;12954;50.688;10.908;2022-09-04T01:26:08;95685.50;;;12.54;59.94
24892;BME280;12954;50.688;10.908;2022-09-04T01:28:49;95685.53;;;12.49;60.17
24892;BME280;12954;50.688;10.908;2022-09-04T01:31:30;95683.91;;;12.48;60.15
24892;BME280;12954;50.688;10.908;2022-09-04T01:34:07;95664.94;;;12.29;60.34
24892;BME280;12954;50.688;10.908;2022-09-04T01:36:43;95684.03;;;12.38;60.46
24892;BME280;12954;50.688;10.908;2022-09-04T01:39:17;95686.59;;;12.29;60.71
24892;BME280;12954;50.688;10.908;2022-09-04T01:41:57;95689.84;;;12.26;60.54
24892;BME280;12954;50.688;10.908;2022-09-04T01:44:28;95694.16;;;12.27;60.79
24892;BME280;12954;50.688;10.908;2022-09-04T01:47:02;95689.56;;;12.27;60.59
24892;BME280;12954;50.688;10.908;2022-09-04T01:49:37;95693.13;;;12.23;60.81
24892;BME280;12954;50.688;10.908;2022-09-04T01:52:26;95695.03;;;12.22;61.12
24892;BME280;12954;50.688;10.908;2022-09-04T01:55:13;95695.53;;;12.24;61.12
24892;BME280;12954;50.688;10.908;2022-09-04T01:58:01;95680.78;;;12.12;61.24
24892;BME280;12954;50.688;10.908;2022-09-04T02:00:35;95700.38;;;12.27;61.13
24892;BME280;12954;50.688;10.908;2022-09-04T02:03:14;95617.09;;;11.77;61.15
24892;BME280;12954;50.688;10.908;2022-09-04T02:05:58;95702.50;;;12.31;61.58
24892;BME280;12954;50.688;10.908;2022-09-04T02:08:50;95703.25;;;12.36;61.61
24892;BME280;12954;50.688;10.908;2022-09-04T02:11:25;95703.50;;;12.40;61.88
24892;BME280;12954;50.688;10.908;2022-09-04T02:14:14;95708.84;;;12.45;62.48
24892;BME280;12954;50.688;10.908;2022-09-04T02:16:58;95698.47;;;12.52;62.38
24892;BME280;12954;50.688;10.908;2022-09-04T02:19:36;95697.38;;;12.53;62.52
24892;BME280;12954;50.688;10.908;2022-09-04T02:22:17;95701.75;;;12.49;62.90
24892;BME280;12954;50.688;10.908;2022-09-04T02:24:53;95699.06;;;12.49;62.76
24892;BME280;12954;50.688;10.908;2022-09-04T02:27:30;95654.50;;;12.17;62.50
24892;BME280;12954;50.688;10.908;2022-09-04T02:30:05;95704.44;;;12.54;62.59
24892;BME280;12954;50.688;10.908;2022-09-04T02:32:39;95701.19;;;12.52;62.54
24892;BME280;12954;50.688;10.908;2022-09-04T02:35:17;95703.34;;;12.50;62.83
24892;BME280;12954;50.688;10.908;2022-09-04T02:37:59;95700.38;;;12.51;63.01
24892;BME280;12954;50.688;10.908;2022-09-04T02:40:35;95709.97;;;12.39;64.69
24892;BME280;12954;50.688;10.908;2022-09-04T02:43:22;95703.97;;;12.47;63.34
24892;BME280;12954;50.688;10.908;2022-09-04T02:46:03;95708.00;;;12.49;63.47
24892;BME280;12954;50.688;10.908;2022-09-04T02:48:45;95717.41;;;12.52;63.49
24892;BME280;12954;50.688;10.908;2022-09-04T02:51:25;95723.38;;;12.54;63.36
24892;BME280;12954;50.688;10.908;2022-09-04T02:54:09;95673.09;;;12.24;63.53
24892;BME280;12954;50.688;10.908;2022-09-04T02:56:42;95721.72;;;12.58;63.23
24892;BME280;12954;50.688;10.908;2022-09-04T02:59:29;95724.13;;;12.59;63.33
24892;BME280;12954;50.688;10.908;2022-09-04T03:02:04;95717.91;;;12.59;63.32
24892;BME280;12954;50.688;10.908;2022-09-04T03:04:38;95721.94;;;12.61;63.36
24892;BME280;12954;50.688;10.908;2022-09-04T03:07:20;95726.56;;;12.61;63.24
24892;BME280;12954;50.688;10.908;2022-09-04T03:09:55;95733.03;;;12.60;63.58
24892;BME280;12954;50.688;10.908;2022-09-04T03:12:31;95733.56;;;12.62;63.33
24892;BME280;12954;50.688;10.908;2022-09-04T03:15:08;95726.56;;;12.61;63.42
24892;BME280;12954;50.688;10.908;2022-09-04T03:17:48;95728.13;;;12.62;63.36
24892;BME280;12954;50.688;10.908;2022-09-04T03:20:21;95729.75;;;12.63;63.48
24892;BME280;12954;50.688;10.908;2022-09-04T03:22:56;95711.47;;;12.55;63.63
24892;BME280;12954;50.688;10.908;2022-09-04T03:25:52;95734.03;;;12.69;63.53
24892;BME280;12954;50.688;10.908;2022-09-04T03:28:35;95742.72;;;12.66;63.44
24892;BME280;12954;50.688;10.908;2022-09-04T03:31:19;95733.78;;;12.65;63.50
24892;BME280;12954;50.688;10.908;2022-09-04T03:34:00;95740.28;;;12.64;63.58
24892;BME280;12954;50.688;10.908;2022-09-04T03:36:36;95736.94;;;12.49;64.21
24892;BME280;12954;50.688;10.908;2022-09-04T03:39:16;95735.81;;;12.55;63.33
24892;BME280;12954;50.688;10.908;2022-09-04T03:41:57;95732.03;;;12.51;63.54
24892;BME280;12954;50.688;10.908;2022-09-04T03:44:42;95644.78;;;11.93;63.27
24892;BME280;12954;50.688;10.908;2022-09-04T03:47:27;95736.94;;;12.49;63.41
24892;BME280;12954;50.688;10.908;2022-09-04T03:50:09;95720.28;;;12.37;63.14
24892;BME280;12954;50.688;10.908;2022-09-04T03:52:49;95717.31;;;12.14;62.85
24892;BME280;12954;50.688;10.908;2022-09-04T03:55:35;95723.56;;;12.34;62.73
24892;BME280;12954;50.688;10.908;2022-09-04T03:58:16;95744.81;;;12.45;62.68
24892;BME280;12954;50.688;10.908;2022-09-04T04:00:53;95704.56;;;12.15;62.82
24892;BME280;12954;50.688;10.908;2022-09-04T04:03:40;95745.22;;;12.34;63.04
24892;BME280;12954;50.688;10.908;2022-09-04T04:06:22;95754.72;;;12.31;63.01
24892;BME280;12954;50.688;10.908;2022-09-04T04:09:12;95749.56;;;12.30;62.68
24892;BME280;12954;50.688;10.908;2022-09-04T04:11:57;95709.16;;;11.91;62.68
24892;BME280;12954;50.688;10.908;2022-09-04T04:17:50;95754.88;;;12.16;62.99
24892;BME280;12954;50.688;10.908;2022-09-04T04:20:30;95760.56;;;12.14;63.05
24892;BME280;12954;50.688;10.908;2022-09-04T04:23:28;95759.97;;;12.17;62.92
24892;BME280;12954;50.688;10.908;2022-09-04T04:26:07;95762.97;;;12.16;62.96
24892;BME280;12954;50.688;10.908;2022-09-04T04:28:57;95756.56;;;12.07;63.16
24892;BME280;12954;50.688;10.908;2022-09-04T04:31:44;95768.38;;;12.16;62.90
24892;BME280;12954;50.688;10.908;2022-09-04T04:34:43;95762.97;;;12.16;62.77
24892;BME280;12954;50.688;10.908;2022-09-04T04:37:26;95765.16;;;12.14;62.85
24892;BME280;12954;50.688;10.908;2022-09-04T04:40:04;95779.25;;;12.11;63.02
24892;BME280;12954;50.688;10.908;2022-09-04T04:42:43;95701.25;;;11.65;63.06
24892;BME280;12954;50.688;10.908;2022-09-04T04:45:23;95785.19;;;12.13;63.03
24892;BME280;12954;50.688;10.908;2022-09-04T04:48:59;95794.69;;;12.10;63.31
24892;BME280;12954;50.688;10.908;2022-09-04T04:51:49;95783.56;;;12.12;63.07
24892;BME280;12954;50.688;10.908;2022-09-04T04:57:23;95792.47;;;12.12;62.80
24892;BME280;12954;50.688;10.908;2022-09-04T05:00:03;95797.63;;;12.14;62.87
24892;BME280;12954;50.688;10.908;2022-09-04T05:02:38;95796.56;;;12.10;63.12
24892;BME280;12954;50.688;10.908;2022-09-04T05:05:13;95809.28;;;12.09;63.13
24892;BME280;12954;50.688;10.908;2022-09-04T05:07:52;95793.59;;;12.11;62.95
24892;BME280;12954;50.688;10.908;2022-09-04T05:10:38;95811.41;;;12.12;63.21
24892;BME280;12954;50.688;10.908;2022-09-04T05:13:15;95812.75;;;12.15;63.07
24892;BME280;12954;50.688;10.908;2022-09-04T05:15:51;95816.00;;;12.17;63.11
24892;BME280;12954;50.688;10.908;2022-09-04T05:18:44;95817.31;;;12.19;63.48
24892;BME280;12954;50.688;10.908;2022-09-04T05:21:20;95818.91;;;12.20;63.41
24892;BME280;12954;50.688;10.908;2022-09-04T05:23:55;95821.34;;;12.22;63.50
24892;BME280;12954;50.688;10.908;2022-09-04T05:26:28;95801.28;;;11.99;63.58
24892;BME280;12954;50.688;10.908;2022-09-04T05:29:05;95830.22;;;12.27;63.71
24892;BME280;12954;50.688;10.908;2022-09-04T05:31:43;95827.75;;;12.31;63.66
24892;BME280;12954;50.688;10.908;2022-09-04T05:34:24;95826.88;;;12.36;63.93
24892;BME280;12954;50.688;10.908;2022-09-04T05:37:05;95845.00;;;12.40;63.96
24892;BME280;12954;50.688;10.908;2022-09-04T05:39:46;95841.41;;;12.45;64.08
24892;BME280;12954;50.688;10.908;2022-09-04T05:42:37;95847.88;;;12.49;64.34
24892;BME280;12954;50.688;10.908;2022-09-04T05:45:20;95850.56;;;12.54;64.26
24892;BME280;12954;50.688;10.908;2022-09-04T05:48:00;95853.75;;;12.61;64.14
24892;BME280;12954;50.688;10.908;2022-09-04T05:53:29;95867.88;;;12.58;65.27
24892;BME280;12954;50.688;10.908;2022-09-04T05:56:29;95871.00;;;12.70;64.64
24892;BME280;12954;50.688;10.908;2022-09-04T05:59:21;95866.03;;;12.77;64.40
24892;BME280;12954;50.688;10.908;2022-09-04T06:02:11;95865.41;;;12.85;64.48
24892;BME280;12954;50.688;10.908;2022-09-04T06:05:00;95825.56;;;12.62;64.44
24892;BME280;12954;50.688;10.908;2022-09-04T06:07:38;95871.22;;;12.97;64.58
24892;BME280;12954;50.688;10.908;2022-09-04T06:10:14;95880.91;;;13.03;64.41
24892;BME280;12954;50.688;10.908;2022-09-04T06:13:19;95872.75;;;13.08;64.75
24892;BME280;12954;50.688;10.908;2022-09-04T06:16:12;95879.69;;;13.14;64.68
24892;BME280;12954;50.688;10.908;2022-09-04T06:18:58;95883.97;;;13.20;64.69
24892;BME280;12954;50.688;10.908;2022-09-04T06:21:59;95887.97;;;13.28;64.69
24892;BME280;12954;50.688;10.908;2022-09-04T06:27:41;95898.81;;;13.47;64.61
24892;BME280;12954;50.688;10.908;2022-09-04T06:30:16;95862.44;;;13.29;64.56
24892;BME280;12954;50.688;10.908;2022-09-04T06:33:07;95895.91;;;13.67;64.88
24892;BME280;12954;50.688;10.908;2022-09-04T06:36:00;95898.75;;;13.75;64.83
24892;BME280;12954;50.688;10.908;2022-09-04T06:38:40;95902.72;;;13.83;64.83
24892;BME280;12954;50.688;10.908;2022-09-04T06:41:40;95897.94;;;13.93;64.99
24892;BME280;12954;50.688;10.908;2022-09-04T06:44:16;95893.31;;;13.94;64.74
24892;BME280;12954;50.688;10.908;2022-09-04T06:47:01;95902.38;;;14.08;64.72
24892;BME280;12954;50.688;10.908;2022-09-04T06:49:50;95882.63;;;14.03;64.70
24892;BME280;12954;50.688;10.908;2022-09-04T06:52:31;95907.03;;;14.21;64.71
24892;BME280;12954;50.688;10.908;2022-09-04T06:55:12;95905.06;;;14.27;64.87
24892;BME280;12954;50.688;10.908;2022-09-04T06:58:04;95908.50;;;14.32;64.78
24892;BME280;12954;50.688;10.908;2022-09-04T07:00:45;95865.75;;;14.06;64.92
24892;BME280;12954;50.688;10.908;2022-09-04T07:03:42;95908.84;;;14.44;64.84
24892;BME280;12954;50.688;10.908;2022-09-04T07:06:17;95921.81;;;14.47;64.85
24892;BME280;12954;50.688;10.908;2022-09-04T07:09:01;95920.69;;;14.54;64.73
24892;BME280;12954;50.688;10.908;2022-09-04T07:11:37;95927.25;;;14.47;64.95
24892;BME280;12954;50.688;10.908;2022-09-04T07:14:31;95924.91;;;14.60;64.74
24892;BME280;12954;50.688;10.908;2022-09-04T07:17:07;95916.06;;;14.54;64.53
24892;BME280;12954;50.688;10.908;2022-09-04T07:19:53;95924.66;;;14.75;64.71
24892;BME280;12954;50.688;10.908;2022-09-04T07:22:48;95928.91;;;14.81;65.11
24892;BME280;12954;50.688;10.908;2022-09-04T07:25:24;95934.75;;;14.88;65.00
24892;BME280;12954;50.688;10.908;2022-09-04T07:28:28;95917.44;;;14.84;64.66
24892;BME280;12954;50.688;10.908;2022-09-04T07:31:03;95935.09;;;15.00;64.58
24892;BME280;12954;50.688;10.908;2022-09-04T07:33:40;95929.47;;;15.10;63.97
24892;BME280;12954;50.688;10.908;2022-09-04T07:36:16;95932.00;;;15.20;62.57
24892;BME280;12954;50.688;10.908;2022-09-04T07:38:49;95939.75;;;15.27;62.14
24892;BME280;12954;50.688;10.908;2022-09-04T07:41:27;95919.41;;;15.24;61.25
24892;BME280;12954;50.688;10.908;2022-09-04T07:44:03;95939.97;;;15.30;60.57
24892;BME280;12954;50.688;10.908;2022-09-04T07:46:40;95945.16;;;15.45;60.36
24892;BME280;12954;50.688;10.908;2022-09-04T07:49:19;95928.69;;;15.37;60.19
24892;BME280;12954;50.688;10.908;2022-09-04T07:51:56;95896.66;;;15.20;59.96
24892;BME280;12954;50.688;10.908;2022-09-04T07:54:40;95936.56;;;15.66;59.04
24892;BME280;12954;50.688;10.908;2022-09-04T07:57:16;95947.66;;;15.55;58.91
24892;BME280;12954;50.688;10.908;2022-09-04T08:00:11;95959.34;;;15.70;59.24
24892;BME280;12954;50.688;10.908;2022-09-04T08:03:00;95954.69;;;15.84;58.75
24892;BME280;12954;50.688;10.908;2022-09-04T08:05:33;95951.88;;;15.89;58.65
24892;BME280;12954;50.688;10.908;2022-09-04T08:08:51;95956.50;;;16.02;58.50
24892;BME280;12954;50.688;10.908;2022-09-04T08:11:40;95956.88;;;16.09;58.43
24892;BME280;12954;50.688;10.908;2022-09-04T08:14:26;95962.09;;;16.19;58.49
24892;BME280;12954;50.688;10.908;2022-09-04T08:17:13;95962.50;;;16.12;58.63
24892;BME280;12954;50.688;10.908;2022-09-04T08:19:57;95968.47;;;16.28;58.40
24892;BME280;12954;50.688;10.908;2022-09-04T08:22:41;95963.88;;;16.37;57.67
24892;BME280;12954;50.688;10.908;2022-09-04T08:25:27;95968.81;;;16.49;57.65
24892;BME280;12954;50.688;10.908;2022-09-04T08:28:10;95981.69;;;16.57;57.08
24892;BME280;12954;50.688;10.908;2022-09-04T08:30:52;95967.47;;;16.60;56.94
24892;BME280;12954;50.688;10.908;2022-09-04T08:33:50;95967.38;;;16.74;56.12
24892;BME280;12954;50.688;10.908;2022-09-04T08:36:27;95979.78;;;16.80;56.29
24892;BME280;12954;50.688;10.908;2022-09-04T08:39:05;95971.97;;;16.87;56.01
24892;BME280;12954;50.688;10.908;2022-09-04T08:42:07;95981.03;;;16.96;55.47
24892;BME280;12954;50.688;10.908;2022-09-04T08:48:18;95983.56;;;17.14;55.54
24892;BME280;12954;50.688;10.908;2022-09-04T08:51:24;95979.47;;;17.26;55.21
24892;BME280;12954;50.688;10.908;2022-09-04T08:54:33;95988.00;;;17.33;55.24
24892;BME280;12954;50.688;10.908;2022-09-04T09:00:14;95993.88;;;17.48;54.30
24892;BME280;12954;50.688;10.908;2022-09-04T09:06:16;95994.28;;;17.72;53.04
24892;BME280;12954;50.688;10.908;2022-09-04T09:09:18;95996.38;;;17.75;53.02
24892;BME280;12954;50.688;10.908;2022-09-04T09:12:35;95990.28;;;17.78;52.94
24892;BME280;12954;50.688;10.908;2022-09-04T09:18:00;95992.00;;;17.97;52.82
24892;BME280;12954;50.688;10.908;2022-09-04T09:20:37;95999.09;;;18.06;52.54
24892;BME280;12954;50.688;10.908;2022-09-04T09:23:18;95979.78;;;17.94;52.27
24892;BME280;12954;50.688;10.908;2022-09-04T09:25:51;95886.03;;;17.42;51.99
24892;BME280;12954;50.688;10.908;2022-09-04T09:35:21;95996.09;;;18.25;50.62
24892;BME280;12954;50.688;10.908;2022-09-04T09:38:21;95995.13;;;18.21;51.06
24892;BME280;12954;50.688;10.908;2022-09-04T09:41:18;95964.41;;;17.98;51.20
24892;BME280;12954;50.688;10.908;2022-09-04T09:47:25;96003.63;;;18.19;51.18
24892;BME280;12954;50.688;10.908;2022-09-04T09:50:19;96005.56;;;18.19;51.01
24892;BME280;12954;50.688;10.908;2022-09-04T09:53:47;95967.78;;;18.04;50.82
24892;BME280;12954;50.688;10.908;2022-09-04T09:56:40;96005.22;;;18.20;51.40
24892;BME280;12954;50.688;10.908;2022-09-04T09:59:49;96008.28;;;18.19;51.46
24892;BME280;12954;50.688;10.908;2022-09-04T10:06:00;96002.34;;;18.25;51.44
24892;BME280;12954;50.688;10.908;2022-09-04T10:09:10;95998.97;;;18.28;51.66
24892;BME280;12954;50.688;10.908;2022-09-04T10:12:07;96003.97;;;18.35;51.56
24892;BME280;12954;50.688;10.908;2022-09-04T10:15:07;96003.97;;;18.44;51.21
24892;BME280;12954;50.688;10.908;2022-09-04T10:18:08;95997.75;;;18.60;50.79
24892;BME280;12954;50.688;10.908;2022-09-04T10:21:11;95992.16;;;18.65;50.36
24892;BME280;12954;50.688;10.908;2022-09-04T10:23:58;95992.31;;;18.95;50.44
24892;BME280;12954;50.688;10.908;2022-09-04T10:27:03;95999.50;;;19.25;49.81
24892;BME280;12954;50.688;10.908;2022-09-04T10:29:52;95990.63;;;19.45;49.58
24892;BME280;12954;50.688;10.908;2022-09-04T10:35:55;95993.66;;;19.52;49.19
24892;BME280;12954;50.688;10.908;2022-09-04T10:38:37;95996.09;;;19.54;49.31
24892;BME280;12954;50.688;10.908;2022-09-04T10:41:52;95998.47;;;19.55;48.93
24892;BME280;12954;50.688;10.908;2022-09-04T10:44:36;95999.91;;;19.61;49.28
24892;BME280;12954;50.688;10.908;2022-09-04T10:47:15;95995.88;;;19.67;48.74
24892;BME280;12954;50.688;10.908;2022-09-04T10:50:10;95994.75;;;19.68;48.60
24892;BME280;12954;50.688;10.908;2022-09-04T10:53:09;95994.09;;;19.71;48.63
24892;BME280;12954;50.688;10.908;2022-09-04T10:56:03;95985.53;;;19.73;48.71
24892;BME280;12954;50.688;10.908;2022-09-04T10:59:05;95992.13;;;19.80;48.45
24892;BME280;12954;50.688;10.908;2022-09-04T11:05:01;95995.31;;;19.82;48.06
24892;BME280;12954;50.688;10.908;2022-09-04T11:07:58;96001.41;;;19.88;48.20
24892;BME280;12954;50.688;10.908;2022-09-04T11:13:45;95997.13;;;20.08;47.49
24892;BME280;12954;50.688;10.908;2022-09-04T11:16:35;95994.81;;;20.27;47.25
24892;BME280;12954;50.688;10.908;2022-09-04T11:19:28;95990.41;;;20.34;47.37
24892;BME280;12954;50.688;10.908;2022-09-04T11:22:33;95996.03;;;20.38;47.16
24892;BME280;12954;50.688;10.908;2022-09-04T11:31:33;95993.75;;;20.40;47.25
24892;BME280;12954;50.688;10.908;2022-09-04T11:34:30;95995.22;;;20.37;46.95
24892;BME280;12954;50.688;10.908;2022-09-04T11:37:32;95988.81;;;20.33;46.91
24892;BME280;12954;50.688;10.908;2022-09-04T11:43:24;95994.94;;;20.30;46.87
24892;BME280;12954;50.688;10.908;2022-09-04T11:46:18;95996.47;;;20.40;46.50
24892;BME280;12954;50.688;10.908;2022-09-04T11:49:12;95991.75;;;20.49;46.54
24892;BME280;12954;50.688;10.908;2022-09-04T11:55:20;95993.09;;;20.64;46.57
24892;BME280;12954;50.688;10.908;2022-09-04T11:58:19;95995.41;;;20.82;46.37
24892;BME280;12954;50.688;10.908;2022-09-04T12:01:00;95989.63;;;20.96;46.09
24892;BME280;12954;50.688;10.908;2022-09-04T12:04:27;95995.41;;;21.03;45.65
24892;BME280;12954;50.688;10.908;2022-09-04T12:07:07;96000.03;;;21.23;45.44
24892;BME280;12954;50.688;10.908;2022-09-04T12:09:58;96000.66;;;21.41;44.82
24892;BME280;12954;50.688;10.908;2022-09-04T12:16:42;96001.31;;;21.26;44.81
24892;BME280;12954;50.688;10.908;2022-09-04T12:19:41;95989.81;;;21.12;45.01
24892;BME280;12954;50.688;10.908;2022-09-04T12:28:55;95986.81;;;21.04;45.04
24892;BME280;12954;50.688;10.908;2022-09-04T12:31:48;95998.47;;;21.01;45.19
24892;BME280;12954;50.688;10.908;2022-09-04T12:34:44;95956.56;;;20.80;45.33
24892;BME280;12954;50.688;10.908;2022-09-04T12:37:40;95953.66;;;20.77;45.32
24892;BME280;12954;50.688;10.908;2022-09-04T12:40:28;96006.00;;;21.04;45.34
24892;BME280;12954;50.688;10.908;2022-09-04T12:43:07;96005.22;;;21.04;45.26
24892;BME280;12954;50.688;10.908;2022-09-04T12:45:50;96009.91;;;21.03;44.75
24892;BME280;12954;50.688;10.908;2022-09-04T12:48:29;96005.22;;;21.04;45.13
24892;BME280;12954;50.688;10.908;2022-09-04T12:51:07;96004.09;;;21.05;45.19
24892;BME280;12954;50.688;10.908;2022-09-04T12:53:54;96006.50;;;21.06;45.16
24892;BME280;12954;50.688;10.908;2022-09-04T12:56:34;96017.13;;;21.08;45.12
24892;BME280;12954;50.688;10.908;2022-09-04T12:59:24;96022.28;;;21.10;45.29
24892;BME280;12954;50.688;10.908;2022-09-04T13:02:03;96020.69;;;21.08;45.04
24892;BME280;12954;50.688;10.908;2022-09-04T13:04:46;96023.75;;;21.07;44.92
24892;BME280;12954;50.688;10.908;2022-09-04T13:07:30;96025.22;;;21.04;45.05
24892;BME280;12954;50.688;10.908;2022-09-04T13:10:16;96018.81;;;21.00;44.95
24892;BME280;12954;50.688;10.908;2022-09-04T13:12:57;96035.28;;;21.00;45.11
24892;BME280;12954;50.688;10.908;2022-09-04T13:15:33;96035.13;;;20.97;45.05
24892;BME280;12954;50.688;10.908;2022-09-04T13:18:18;96031.94;;;20.95;45.09
24892;BME280;12954;50.688;10.908;2022-09-04T13:20:53;96030.19;;;20.90;45.10
24892;BME280;12954;50.688;10.908;2022-09-04T13:23:37;96030.84;;;20.87;44.97
24892;BME280;12954;50.688;10.908;2022-09-04T13:26:29;96036.34;;;20.87;45.34
24892;BME280;12954;50.688;10.908;2022-09-04T13:29:08;95997.53;;;20.56;45.43
24892;BME280;12954;50.688;10.908;2022-09-04T13:32:03;96035.56;;;20.78;45.26
24892;BME280;12954;50.688;10.908;2022-09-04T13:34:51;96033.50;;;20.75;45.32
24892;BME280;12954;50.688;10.908;2022-09-04T13:37:27;96032.56;;;20.71;45.28
24892;BME280;12954;50.688;10.908;2022-09-04T13:40:01;96034.44;;;20.59;45.36
24892;BME280;12954;50.688;10.908;2022-09-04T13:43:00;96041.31;;;20.65;45.20
24892;BME280;12954;50.688;10.908;2022-09-04T13:45:33;96030.66;;;20.63;45.37
24892;BME280;12954;50.688;10.908;2022-09-04T13:48:09;96030.66;;;20.63;45.43
24892;BME280;12954;50.688;10.908;2022-09-04T13:50:42;96034.56;;;20.62;45.53
24892;BME280;12954;50.688;10.908;2022-09-04T13:53:16;96038.44;;;20.61;45.41
24892;BME280;12954;50.688;10.908;2022-09-04T13:55:48;96035.59;;;20.49;45.47
24892;BME280;12954;50.688;10.908;2022-09-04T13:58:23;96022.63;;;20.37;45.78
24892;BME280;12954;50.688;10.908;2022-09-04T14:00:58;96044.44;;;20.54;45.71
24892;BME280;12954;50.688;10.908;2022-09-04T14:03:34;96042.03;;;20.53;45.90
24892;BME280;12954;50.688;10.908;2022-09-04T14:06:08;96028.25;;;20.41;45.95
24892;BME280;12954;50.688;10.908;2022-09-04T14:08:38;96046.25;;;20.50;46.10
24892;BME280;12954;50.688;10.908;2022-09-04T14:14:47;96042.25;;;20.48;46.51
24892;BME280;12954;50.688;10.908;2022-09-04T14:17:32;96049.97;;;20.46;46.48
24892;BME280;12954;50.688;10.908;2022-09-04T14:20:07;96047.22;;;20.46;46.48
24892;BME280;12954;50.688;10.908;2022-09-04T14:22:55;96044.50;;;20.46;46.41
24892;BME280;12954;50.688;10.908;2022-09-04T14:25:28;96055.00;;;20.44;46.36
24892;BME280;12954;50.688;10.908;2022-09-04T14:28:01;96050.31;;;20.44;46.62
24892;BME280;12954;50.688;10.908;2022-09-04T14:30:40;96044.84;;;20.44;46.58
24892;BME280;12954;50.688;10.908;2022-09-04T14:33:21;96053.38;;;20.43;46.70
24892;BME280;12954;50.688;10.908;2022-09-04T14:36:06;96054.03;;;20.40;46.78
24892;BME280;12954;50.688;10.908;2022-09-04T14:39:00;96054.38;;;20.38;46.58
24892;BME280;12954;50.688;10.908;2022-09-04T14:41:44;96055.34;;;20.34;46.84
24892;BME280;12954;50.688;10.908;2022-09-04T14:44:23;96057.63;;;20.32;46.92
24892;BME280;12954;50.688;10.908;2022-09-04T14:47:07;96053.28;;;20.31;47.03
24892;BME280;12954;50.688;10.908;2022-09-04T14:49:41;96058.28;;;20.29;47.05
24892;BME280;12954;50.688;10.908;2022-09-04T14:52:15;96031.63;;;20.09;47.25
24892;BME280;12954;50.688;10.908;2022-09-04T14:54:51;96051.19;;;20.28;47.75
24892;BME280;12954;50.688;10.908;2022-09-04T14:57:25;96049.13;;;20.25;47.99
24892;BME280;12954;50.688;10.908;2022-09-04T15:00:03;96049.47;;;20.23;48.20
24892;BME280;12954;50.688;10.908;2022-09-04T15:02:35;96054.78;;;20.20;48.34
24892;BME280;12954;50.688;10.908;2022-09-04T15:05:13;96049.97;;;20.17;48.40
24892;BME280;12954;50.688;10.908;2022-09-04T15:07:55;96057.38;;;20.16;48.24
24892;BME280;12954;50.688;10.908;2022-09-04T15:10:33;96052.56;;;20.13;48.69
24892;BME280;12954;50.688;10.908;2022-09-04T15:16:15;96063.22;;;20.06;48.53
24892;BME280;12954;50.688;10.908;2022-09-04T15:18:50;96059.66;;;20.06;48.71
24892;BME280;12954;50.688;10.908;2022-09-04T15:21:28;96050.97;;;20.04;48.85
24892;BME280;12954;50.688;10.908;2022-09-04T15:24:02;96064.19;;;20.02;48.79
24892;BME280;12954;50.688;10.908;2022-09-04T15:26:43;96058.69;;;20.02;48.76
24892;BME280;12954;50.688;10.908;2022-09-04T15:29:16;96060.16;;;19.99;48.73
24892;BME280;12954;50.688;10.908;2022-09-04T15:31:47;96067.13;;;19.96;48.80
24892;BME280;12954;50.688;10.908;2022-09-04T15:34:19;96061.50;;;19.84;48.89
24892;BME280;12954;50.688;10.908;2022-09-04T15:36:49;96070.97;;;19.95;48.90
24892;BME280;12954;50.688;10.908;2022-09-04T15:39:26;96067.13;;;19.96;48.74
24892;BME280;12954;50.688;10.908;2022-09-04T15:41:58;96067.13;;;19.96;48.69